M I D A S
Marine Information and Data Acquisition System
Tripno 1847 of the Zeeleeuw from 2010-03-23 08:42:18 to 2010-03-23 15:07:02
Back to CruiseResearch ActivitiesStationsMapUnderway DataData graphs

EquipmentUnitsComment
TimeDGPSUTC
LatitudeDGPSDM.mWGS84
LongitudeDGPSDM.mWGS84
HeadingGyrodeg 
SOGDGPSknotsSpeed over ground
COGDGPSdegCourse over ground
DepthEcho soundermeters200 kHz
Missing or incorrect values are displayed as -999
Navigation data collected by the RV Zeeleeuw from 2010-03-23 08:38:44 to 2010-03-23 15:08:08
Time Latitude Longitude Heading SOG COG Depth
2010-03-23 08:39:53 51°13.674 2°55.905 107.3 3.1 288 -999
2010-03-23 08:40:52 51°13.69 2°55.814 104.3 3.6 286 -999
2010-03-23 08:41:51 51°13.703 2°55.737 92.6 2.2 280 11.2
2010-03-23 08:42:50 51°13.709 2°55.723 53.8 0.6 7 10.6
2010-03-23 08:43:53 51°13.728 2°55.725 6.4 1.6 351 -999
2010-03-23 08:44:50 51°13.775 2°55.687 334.6 5.5 331 10.2
2010-03-23 08:45:49 51°13.877 2°55.603 334.7 7.9 333 10.2
2010-03-23 08:46:49 51°14.006 2°55.506 337.5 9 336 10.3
2010-03-23 08:47:49 51°14.147 2°55.403 336.4 9.6 334 10.3
2010-03-23 08:48:49 51°14.29 2°55.266 329.4 10.4 327 10.5
2010-03-23 08:49:49 51°14.437 2°55.11 328.7 10.8 326 10.5
2010-03-23 08:50:49 51°14.589 2°54.939 326.9 11.6 320 12.2
2010-03-23 08:51:49 51°14.73 2°54.71 309.3 12.6 300 10.1
2010-03-23 08:52:49 51°14.731 2°54.383 257.1 12.9 255 9.9
2010-03-23 08:53:49 51°14.58 2°54.157 213.8 13.5 219 9.9
2010-03-23 08:54:49 51°14.408 2°53.904 222.2 14.2 223 9.8
2010-03-23 08:55:49 51°14.25 2°53.616 232 14.5 235 9.8
2010-03-23 08:56:49 51°14.107 2°53.306 233.8 14.6 234 10
2010-03-23 08:57:49 51°13.949 2°53.014 226.8 14.5 228 10.1
2010-03-23 08:58:49 51°13.794 2°52.721 235.2 14.5 238 10.2
2010-03-23 08:59:49 51°13.676 2°52.386 243.5 14.6 242 10.3
2010-03-23 09:00:49 51°13.559 2°52.049 241 14.4 240 10.3
2010-03-23 09:01:49 51°13.437 2°51.718 240.9 14.4 240 10.4
2010-03-23 09:02:49 51°13.314 2°51.387 240.6 14.5 239 10.6
2010-03-23 09:03:49 51°13.199 2°51.08 239.9 12.1 238 10.8
2010-03-23 09:04:49 51°13.101 2°50.817 240.4 11.4 239 10.8
2010-03-23 09:05:49 51°13.003 2°50.556 240.3 11.5 240 10.9
2010-03-23 09:06:49 51°12.903 2°50.289 240.5 11.9 239 10.9
2010-03-23 09:07:49 51°12.803 2°50.017 240.8 11.9 240 10.9
2010-03-23 09:08:49 51°12.7 2°49.744 240.2 12 239 11
2010-03-23 09:09:49 51°12.597 2°49.472 240.4 12 240 10.9
2010-03-23 09:10:49 51°12.498 2°49.195 243.3 12 242 10.9
2010-03-23 09:11:49 51°12.407 2°48.911 246.1 12 245 11.1
2010-03-23 09:12:49 51°12.33 2°48.615 249.9 12.1 248 11.3
2010-03-23 09:13:49 51°12.255 2°48.318 249.6 12.1 248 11.6
2010-03-23 09:14:49 51°12.18 2°48.021 249.7 12.1 249 11.9
2010-03-23 09:15:49 51°12.105 2°47.723 249.6 12.1 247 12.1
2010-03-23 09:16:49 51°12.028 2°47.421 249.2 12.4 248 12.3
2010-03-23 09:17:49 51°11.951 2°47.115 249.2 12.5 248 12.3
2010-03-23 09:18:49 51°11.874 2°46.808 249.3 12.5 248 12.4
2010-03-23 09:19:49 51°11.795 2°46.501 249.5 12.5 248 12.6
2010-03-23 09:20:49 51°11.717 2°46.194 249 12.5 248 12.6
2010-03-23 09:21:49 51°11.64 2°45.888 249.6 12.4 249 12.5
2010-03-23 09:22:48 51°11.565 2°45.586 249.3 12.4 248 12.4
2010-03-23 09:23:48 51°11.486 2°45.279 249.3 12.5 248 12.4
2010-03-23 09:24:49 51°11.407 2°44.966 249.2 12.5 248 12.3
2010-03-23 09:25:48 51°11.332 2°44.663 248.9 12.5 248 12.2
2010-03-23 09:26:49 51°11.254 2°44.351 249.3 12.5 248 12.2
2010-03-23 09:27:48 51°11.179 2°44.049 249.3 12.5 248 12.2
2010-03-23 09:28:48 51°11.103 2°43.74 249.1 12.5 249 11.9
2010-03-23 09:29:49 51°11.026 2°43.425 249.4 12.6 250 11.9
2010-03-23 09:30:48 51°10.952 2°43.119 249.2 12.6 249 11.9
2010-03-23 09:31:48 51°10.875 2°42.805 249.2 13 250 11.8
2010-03-23 09:32:48 51°10.797 2°42.479 249 13.2 249 11.8
2010-03-23 09:33:48 51°10.719 2°42.153 248.9 13.2 249 11.8
2010-03-23 09:34:49 51°10.64 2°41.818 249.4 13.4 249 11.7
2010-03-23 09:35:49 51°10.554 2°41.486 247.4 13.7 248 11.6
2010-03-23 09:36:48 51°10.468 2°41.158 246.9 13.6 247 11.6
2010-03-23 09:37:48 51°10.381 2°40.826 247.1 13.6 248 11.6
2010-03-23 09:38:48 51°10.295 2°40.494 247.2 13.6 248 11.6
2010-03-23 09:39:49 51°10.21 2°40.156 247.7 13.6 248 11.6
2010-03-23 09:40:48 51°10.127 2°39.828 247.1 13.6 248 11.8
2010-03-23 09:41:49 51°10.041 2°39.488 247.3 13.6 248 11.9
2010-03-23 09:42:48 51°9.959 2°39.157 247.6 13.7 249 12.1
2010-03-23 09:43:48 51°9.874 2°38.82 247.6 13.7 249 12.4
2010-03-23 09:44:49 51°9.789 2°38.475 247 13.7 248 12.7
2010-03-23 09:45:48 51°9.708 2°38.141 247.6 13.8 249 13
2010-03-23 09:46:48 51°9.624 2°37.8 247.4 13.8 248 13.3
2010-03-23 09:47:48 51°9.541 2°37.458 247.6 13.9 249 13.6
2010-03-23 09:48:49 51°9.454 2°37.11 247.5 14 248 14.5
2010-03-23 09:49:48 51°9.371 2°36.772 247.4 13.9 248 15.1
2010-03-23 09:50:49 51°9.283 2°36.425 247 13.9 248 15.3
2010-03-23 09:51:49 51°9.197 2°36.082 247.5 14 248 15.5
2010-03-23 09:52:48 51°9.112 2°35.744 247.3 14 248 15.6
2010-03-23 09:53:49 51°9.024 2°35.393 247.3 14.1 248 15.8
2010-03-23 09:54:49 51°8.936 2°35.047 247.6 14.1 248 15.8
2010-03-23 09:55:49 51°8.822 2°34.724 235 14 236 16.3
2010-03-23 09:56:48 51°8.682 2°34.436 226.9 14 230 16.4
2010-03-23 09:57:48 51°8.528 2°34.158 225.4 14 228 16.3
2010-03-23 09:58:48 51°8.377 2°33.911 222.3 11.2 226 15.9
2010-03-23 09:59:49 51°8.259 2°33.711 223.8 9.8 227 15
2010-03-23 10:00:48 51°8.149 2°33.528 223.8 9.6 227 13.1
2010-03-23 10:01:48 51°8.045 2°33.352 223.6 8 225 11.5
2010-03-23 10:02:49 51°7.973 2°33.245 224.6 3.9 230 11
2010-03-23 10:03:48 51°7.955 2°33.198 257 1.6 242 11.1
2010-03-23 10:04:49 51°7.943 2°33.162 262.1 1.4 241 11
2010-03-23 10:05:48 51°7.932 2°33.135 265.3 1.2 238 10.9
2010-03-23 10:06:49 51°7.922 2°33.108 267.2 1.2 236 11.2
2010-03-23 10:07:48 51°7.912 2°33.082 268.2 1.2 241 11.1
2010-03-23 10:08:49 51°7.902 2°33.056 268.2 1.2 237 11.1
2010-03-23 10:09:48 51°7.892 2°33.03 267.9 1.1 240 10.8
2010-03-23 10:10:49 51°7.882 2°33.003 269.1 1.1 243 11
2010-03-23 10:11:48 51°7.873 2°32.977 270.5 1.2 238 10.8
2010-03-23 10:12:49 51°7.863 2°32.95 271.5 1.1 242 10.8
2010-03-23 10:13:48 51°7.853 2°32.924 272.6 1.2 238 10.8
2010-03-23 10:14:48 51°7.844 2°32.898 273.9 1.2 241 10.8
2010-03-23 10:15:49 51°7.834 2°32.87 275.2 1.2 238 10.7
2010-03-23 10:16:48 51°7.824 2°32.844 277.4 1.2 240 10.5
2010-03-23 10:17:49 51°7.814 2°32.816 281.4 1.1 241 10.9
2010-03-23 10:18:48 51°7.803 2°32.791 285.3 1.1 239 10.9
2010-03-23 10:19:49 51°7.792 2°32.765 288.3 1.2 235 10.8
2010-03-23 10:20:49 51°7.781 2°32.739 289.9 1.1 236 10.7
2010-03-23 10:21:48 51°7.77 2°32.714 291.4 1.1 235 10.6
2010-03-23 10:22:49 51°7.758 2°32.689 293.6 1.2 234 10.8
2010-03-23 10:23:49 51°7.746 2°32.664 296.3 1.2 233 10.5
2010-03-23 10:24:49 51°7.735 2°32.64 300.1 1.1 233 10.5
2010-03-23 10:25:48 51°7.724 2°32.616 303.9 1.1 233 10.5
2010-03-23 10:26:48 51°7.713 2°32.592 307.4 1.1 232 10.5
2010-03-23 10:27:48 51°7.701 2°32.569 310.7 1.1 232 10.4
2010-03-23 10:28:48 51°7.69 2°32.546 314.3 1.1 231 10.3
2010-03-23 10:29:49 51°7.678 2°32.523 318 1.2 230 10.1
2010-03-23 10:30:48 51°7.666 2°32.501 321.1 1.1 230 10
2010-03-23 10:31:48 51°7.654 2°32.478 324.9 1.1 229 9.9
2010-03-23 10:32:49 51°7.642 2°32.456 328.1 1.1 228 9.8
2010-03-23 10:33:49 51°7.629 2°32.434 330.5 1.1 227 9.9
2010-03-23 10:34:48 51°7.616 2°32.412 331.4 1.1 226 9.6
2010-03-23 10:35:48 51°7.602 2°32.391 328.2 1.1 226 9.4
2010-03-23 10:36:48 51°7.597 2°32.365 340.5 1.3 300 9.5
2010-03-23 10:37:48 51°7.623 2°32.36 34.4 2.2 30 10.1
2010-03-23 10:38:49 51°7.687 2°32.449 42 7 39 10.5
2010-03-23 10:39:48 51°7.766 2°32.606 61.9 8.2 61 11.3
2010-03-23 10:40:49 51°7.848 2°32.79 55 8.4 57 11.5
2010-03-23 10:41:49 51°7.914 2°32.983 58.4 7.8 59 11.7
2010-03-23 10:42:49 51°7.953 2°33.104 71.7 3.7 77 11.7
2010-03-23 10:43:48 51°7.958 2°33.179 76.1 2.3 85 10.7
2010-03-23 10:44:48 51°7.967 2°33.219 57.4 1.1 69 10.9
2010-03-23 10:45:48 51°7.969 2°33.234 69.5 0.4 120 10.9
2010-03-23 10:46:48 51°7.963 2°33.239 80.1 0.5 170 10.4
2010-03-23 10:47:49 51°7.953 2°33.238 84.1 0.7 188 10.3
2010-03-23 10:48:49 51°7.943 2°33.234 86.5 0.8 200 10.2
2010-03-23 10:49:48 51°7.932 2°33.225 90.7 0.8 207 10.3
2010-03-23 10:50:48 51°7.92 2°33.214 96.3 0.9 212 9.9
2010-03-23 10:51:49 51°7.907 2°33.203 101.6 0.8 176 9.9
2010-03-23 10:52:48 51°7.916 2°33.234 37.2 3 27 9.6
2010-03-23 10:53:49 51°8.011 2°33.315 33.9 8.2 30 10.5
2010-03-23 10:54:48 51°8.151 2°33.36 4.4 9.5 352 14.7
2010-03-23 10:55:49 51°8.318 2°33.289 353.3 10.5 344 16.2
2010-03-23 10:56:48 51°8.479 2°33.179 341.5 10.8 334 15.2
2010-03-23 10:57:48 51°8.64 2°33.052 342.1 10.5 333 17.9
2010-03-23 10:58:48 51°8.792 2°32.948 354.6 9.6 346 17.8
2010-03-23 10:59:48 51°8.916 2°32.942 29.1 4.7 22 18
2010-03-23 11:00:48 51°8.944 2°33.027 80.5 4.2 84 17.9
2010-03-23 11:01:48 51°8.951 2°33.106 74.2 1.6 90 17.8
2010-03-23 11:02:48 51°8.94 2°33.118 110 1 218 17.9
2010-03-23 11:03:48 51°8.927 2°33.092 130.1 1.3 232 17.9
2010-03-23 11:04:48 51°8.912 2°33.062 148.2 1.4 231 17.9
2010-03-23 11:05:48 51°8.896 2°33.03 161.5 1.6 231 18
2010-03-23 11:06:48 51°8.878 2°32.996 169.5 1.7 232 17.9
2010-03-23 11:07:48 51°8.86 2°32.96 173.1 1.8 232 18
2010-03-23 11:08:48 51°8.841 2°32.924 172.4 1.8 230 18
2010-03-23 11:09:49 51°8.823 2°32.887 169.3 1.8 231 18
2010-03-23 11:10:48 51°8.805 2°32.852 166.1 1.8 232 18.1
2010-03-23 11:11:49 51°8.786 2°32.816 164.1 1.7 232 18.1
2010-03-23 11:12:48 51°8.769 2°32.782 163.5 1.7 232 18.1
2010-03-23 11:13:49 51°8.751 2°32.747 163.1 1.7 231 18.2
2010-03-23 11:14:48 51°8.735 2°32.714 163.2 1.7 231 18.2
2010-03-23 11:15:49 51°8.716 2°32.68 162.7 1.7 231 18.3
2010-03-23 11:16:49 51°8.699 2°32.646 161.9 1.7 231 18.2
2010-03-23 11:17:48 51°8.682 2°32.613 160.6 1.7 231 18.1
2010-03-23 11:18:49 51°8.665 2°32.58 161 1.6 230 18.2
2010-03-23 11:19:48 51°8.648 2°32.547 161.9 1.6 230 18.2
2010-03-23 11:20:49 51°8.63 2°32.514 162.4 1.7 231 18.1
2010-03-23 11:21:48 51°8.61 2°32.484 155.6 1.8 209 18.1
2010-03-23 11:22:49 51°8.584 2°32.505 91.4 2.1 102 18.2
2010-03-23 11:23:48 51°8.613 2°32.613 62.5 6.6 64 18.2
2010-03-23 11:24:48 51°8.618 2°32.807 88.5 7.8 91 18.9
2010-03-23 11:25:48 51°8.646 2°33.012 71.6 8.1 72 18.2
2010-03-23 11:26:48 51°8.69 2°33.217 71.7 8.2 72 17.4
2010-03-23 11:27:48 51°8.73 2°33.424 72.8 8.3 73 16.4
2010-03-23 11:28:48 51°8.774 2°33.652 73.4 9.3 74 15.7
2010-03-23 11:29:48 51°8.817 2°33.889 74.2 9.3 75 15.5
2010-03-23 11:30:48 51°8.866 2°34.124 69.8 9.1 69 15.3
2010-03-23 11:31:48 51°8.913 2°34.246 45.9 3.1 34 15.6
2010-03-23 11:32:48 51°8.935 2°34.244 19.2 1 293 15.7
2010-03-23 11:33:48 51°8.94 2°34.214 355.8 1.3 278 15.1
2010-03-23 11:34:48 51°8.941 2°34.177 344.1 1.5 271 15.4
2010-03-23 11:35:48 51°8.94 2°34.137 337.4 1.6 266 15.3
2010-03-23 11:36:48 51°8.939 2°34.096 334.1 1.6 265 14.9
2010-03-23 11:37:48 51°8.936 2°34.054 334 1.6 265 15.1
2010-03-23 11:38:48 51°8.933 2°34.013 336 1.5 264 15.3
2010-03-23 11:39:48 51°8.931 2°33.974 337.5 1.5 263 15.6
2010-03-23 11:40:48 51°8.927 2°33.935 339 1.5 262 15.8
2010-03-23 11:41:48 51°8.923 2°33.896 339.3 1.5 260 15.8
2010-03-23 11:42:48 51°8.918 2°33.858 339.4 1.5 260 15.4
2010-03-23 11:43:48 51°8.914 2°33.819 339.5 1.5 259 15.6
2010-03-23 11:44:48 51°8.908 2°33.781 338.6 1.5 257 15.8
2010-03-23 11:45:49 51°8.902 2°33.743 337.6 1.5 257 16.2
2010-03-23 11:46:48 51°8.895 2°33.704 336.3 1.5 254 16.4
2010-03-23 11:47:48 51°8.891 2°33.663 335.2 1.6 255 16.7
2010-03-23 11:48:48 51°8.884 2°33.624 334.5 1.5 254 16.8
2010-03-23 11:49:48 51°8.876 2°33.584 332.9 1.6 253 17.1
2010-03-23 11:50:48 51°8.866 2°33.545 330.6 1.6 251 17.1
2010-03-23 11:51:48 51°8.858 2°33.505 328.5 1.6 250 17.2
2010-03-23 11:52:48 51°8.849 2°33.466 327 1.6 250 17.4
2010-03-23 11:53:48 51°8.839 2°33.427 326.9 1.6 249 17.6
2010-03-23 11:54:48 51°8.83 2°33.389 326.8 1.5 250 17.8
2010-03-23 11:55:48 51°8.82 2°33.35 327.9 1.6 249 17.8
2010-03-23 11:56:48 51°8.811 2°33.313 330.5 1.5 249 17.8
2010-03-23 11:57:48 51°8.802 2°33.276 332.9 1.5 250 17.9
2010-03-23 11:58:48 51°8.793 2°33.239 335.2 1.5 249 17.9
2010-03-23 11:59:48 51°8.785 2°33.203 338.3 1.5 249 17.9
2010-03-23 12:00:48 51°8.776 2°33.167 342 1.4 249 17.8
2010-03-23 12:01:48 51°8.767 2°33.131 344.9 1.5 249 17.9
2010-03-23 12:02:48 51°8.759 2°33.096 347 1.4 249 18
2010-03-23 12:03:48 51°8.751 2°33.06 348.7 1.4 248 18
2010-03-23 12:04:48 51°8.742 2°33.025 350.2 1.4 249 18
2010-03-23 12:05:48 51°8.733 2°32.99 351.4 1.5 247 18.1
2010-03-23 12:06:48 51°8.723 2°32.955 351.8 1.5 247 18.1
2010-03-23 12:07:48 51°8.714 2°32.919 351.7 1.5 247 18.3
2010-03-23 12:08:48 51°8.703 2°32.884 350.3 1.5 246 18.5
2010-03-23 12:09:48 51°8.692 2°32.848 346.7 1.5 246 18.7
2010-03-23 12:10:48 51°8.682 2°32.813 342.4 1.5 245 18.8
2010-03-23 12:11:48 51°8.672 2°32.778 338.1 1.5 244 18.9
2010-03-23 12:12:48 51°8.661 2°32.743 334.4 1.5 244 18.8
2010-03-23 12:13:48 51°8.65 2°32.708 331.3 1.4 244 18.7
2010-03-23 12:14:49 51°8.638 2°32.673 328.5 1.5 243 18.7
2010-03-23 12:15:48 51°8.627 2°32.639 325.5 1.4 243 18.5
2010-03-23 12:16:48 51°8.616 2°32.604 322.2 1.5 242 18.6
2010-03-23 12:17:48 51°8.604 2°32.568 318.9 1.5 242 18.5
2010-03-23 12:18:48 51°8.592 2°32.534 316.1 1.5 241 18.4
2010-03-23 12:19:48 51°8.581 2°32.5 313.6 1.5 241 18.6
2010-03-23 12:20:48 51°8.568 2°32.465 311.3 1.5 241 18.5
2010-03-23 12:21:48 51°8.557 2°32.43 310 1.6 240 18.5
2010-03-23 12:22:48 51°8.557 2°32.384 334.3 2.2 297 18.4
2010-03-23 12:23:48 51°8.603 2°32.366 23.3 5.5 14 18.6
2010-03-23 12:24:48 51°8.687 2°32.493 67.3 7.9 71 18.7
2010-03-23 12:25:48 51°8.696 2°32.713 87.8 8.7 91 18.6
2010-03-23 12:26:48 51°8.691 2°32.946 88.4 8.8 92 18.5
2010-03-23 12:27:48 51°8.687 2°33.181 88.7 8.9 91 18
2010-03-23 12:28:48 51°8.683 2°33.417 89.2 9 93 16.3
2010-03-23 12:29:48 51°8.677 2°33.655 89.3 9 92 15.6
2010-03-23 12:30:48 51°8.671 2°33.893 89.4 9 93 16.1
2010-03-23 12:31:48 51°8.665 2°34.13 88.7 8.9 91 16.4
2010-03-23 12:32:48 51°8.684 2°34.359 76.8 8.7 78 16.5
2010-03-23 12:33:48 51°8.713 2°34.584 77.7 8.7 79 16.7
2010-03-23 12:34:48 51°8.742 2°34.809 77.5 8.7 79 16.4
2010-03-23 12:35:48 51°8.75 2°35.037 94.7 8.8 100 15.3
2010-03-23 12:36:49 51°8.717 2°35.255 92.6 6.3 88 12.6
2010-03-23 12:37:48 51°8.767 2°35.308 7.4 3.5 346 13.8
2010-03-23 12:38:48 51°8.817 2°35.267 349.5 3.8 329 15.2
2010-03-23 12:39:49 51°8.889 2°35.216 357.4 4.5 340 16.1
2010-03-23 12:40:48 51°8.97 2°35.198 15.5 4.9 2 16.2
2010-03-23 12:41:48 51°9.033 2°35.227 41.8 3.4 32 16.3
2010-03-23 12:42:48 51°9.069 2°35.285 58.9 3.1 53 16.3
2010-03-23 12:43:48 51°9.095 2°35.365 70.2 3.7 71 16.3
2010-03-23 12:44:48 51°9.111 2°35.462 71.7 3.8 72 16.3
2010-03-23 12:45:48 51°9.139 2°35.553 61.9 3.9 59 16.3
2010-03-23 12:46:48 51°9.163 2°35.647 74.9 3.9 78 16.4
2010-03-23 12:47:48 51°9.163 2°35.752 92.2 4 98 16
2010-03-23 12:48:48 51°9.157 2°35.858 89.9 4 95 16.1
2010-03-23 12:49:48 51°9.156 2°35.964 82.2 4 85 16.1
2010-03-23 12:50:48 51°9.159 2°36.067 88.9 3.7 93 15.9
2010-03-23 12:51:48 51°9.147 2°36.163 99.1 3.7 107 15.5
2010-03-23 12:52:48 51°9.122 2°36.255 108 3.8 117 14.5
2010-03-23 12:53:48 51°9.093 2°36.348 106.8 3.9 116 13.4
2010-03-23 12:54:48 51°9.066 2°36.441 106.3 3.9 114 12.2
2010-03-23 12:55:48 51°9.047 2°36.537 96.8 3.8 103 11.3
2010-03-23 12:56:48 51°9.032 2°36.635 97 3.8 103 10.7
2010-03-23 12:57:48 51°9.027 2°36.734 83.6 3.7 86 10.2
2010-03-23 12:58:48 51°9.043 2°36.828 67.6 3.7 66 10.1
2010-03-23 12:59:48 51°9.076 2°36.914 57.3 3.8 52 10.3
2010-03-23 13:00:48 51°9.121 2°36.987 49.6 3.9 43 10.7
2010-03-23 13:01:48 51°9.169 2°37.06 51.3 3.9 44 11
2010-03-23 13:02:48 51°9.215 2°37.135 52.4 3.9 46 11.4
2010-03-23 13:03:48 51°9.257 2°37.211 53.8 3.9 48 11.8
2010-03-23 13:04:48 51°9.301 2°37.29 53.8 3.9 48 12
2010-03-23 13:05:48 51°9.345 2°37.368 54.1 3.9 49 12.2
2010-03-23 13:06:48 51°9.388 2°37.447 54.9 3.9 50 12.4
2010-03-23 13:07:48 51°9.43 2°37.527 53.9 3.9 49 12.5
2010-03-23 13:08:49 51°9.473 2°37.606 53.8 3.9 49 12.6
2010-03-23 13:09:48 51°9.514 2°37.683 54.3 3.9 49 13
2010-03-23 13:10:48 51°9.555 2°37.762 54.7 3.8 52 13.1
2010-03-23 13:11:48 51°9.587 2°37.849 65.4 3.8 64 13.3
2010-03-23 13:12:48 51°9.614 2°37.939 66.1 3.8 64 13.3
2010-03-23 13:13:48 51°9.641 2°38.028 65 3.8 64 13.3
2010-03-23 13:14:48 51°9.669 2°38.118 65 3.8 63 13.3
2010-03-23 13:15:48 51°9.699 2°38.207 64.6 3.8 63 13.3
2010-03-23 13:16:48 51°9.728 2°38.295 64.2 3.8 62 13.3
2010-03-23 13:17:48 51°9.757 2°38.383 64 3.7 63 13.3
2010-03-23 13:18:48 51°9.785 2°38.471 64.7 3.7 64 13.4
2010-03-23 13:19:48 51°9.813 2°38.56 64.7 3.8 64 13.3
2010-03-23 13:20:48 51°9.84 2°38.649 64.7 3.8 64 13.4
2010-03-23 13:21:48 51°9.869 2°38.739 64.2 3.8 65 13.3
2010-03-23 13:22:48 51°9.897 2°38.829 64.7 3.8 63 13.4
2010-03-23 13:23:48 51°9.931 2°38.912 60.1 3.8 61 13.4
2010-03-23 13:24:48 51°9.938 2°39.009 92.6 3.8 99 13.2
2010-03-23 13:25:48 51°9.91 2°39.102 114.6 4 125 12.6
2010-03-23 13:26:48 51°9.86 2°39.176 137.1 4.1 149 12
2010-03-23 13:27:48 51°9.803 2°39.215 152.2 3.6 166 11.5
2010-03-23 13:28:48 51°9.743 2°39.217 178.3 3.7 191 11.2
2010-03-23 13:29:48 51°9.691 2°39.182 203 3.2 213 11
2010-03-23 13:30:48 51°9.656 2°39.133 220.9 2.5 228 11
2010-03-23 13:31:48 51°9.636 2°39.082 234.5 2.1 241 11
2010-03-23 13:32:48 51°9.621 2°39.035 239 1.8 246 11
2010-03-23 13:33:48 51°9.61 2°38.994 238.1 1.6 246 11.1
2010-03-23 13:34:48 51°9.602 2°38.957 238.6 1.4 253 11.1
2010-03-23 13:35:48 51°9.573 2°38.852 248.9 7.4 249 11.1
2010-03-23 13:36:48 51°9.553 2°38.666 276.7 5.7 274 11.3
2010-03-23 13:37:48 51°9.573 2°38.549 303.9 3.9 293 11.6
2010-03-23 13:38:48 51°9.599 2°38.469 313.8 3 298 11.8
2010-03-23 13:39:48 51°9.623 2°38.394 307.9 4.1 296 12.1
2010-03-23 13:40:48 51°9.654 2°38.269 296.9 5.7 288 12.7
2010-03-23 13:41:48 51°9.676 2°38.131 287.5 4.6 279 13.6
2010-03-23 13:42:48 51°9.676 2°38.027 270.8 3.5 264 14.1
2010-03-23 13:43:48 51°9.669 2°37.947 265 2.8 261 14.4
2010-03-23 13:44:48 51°9.661 2°37.882 263.1 2.3 259 14.5
2010-03-23 13:45:48 51°9.654 2°37.828 261.4 1.9 257 14.8
2010-03-23 13:46:48 51°9.647 2°37.782 260.3 1.7 257 14.9
2010-03-23 13:47:48 51°9.642 2°37.743 260 1.4 261 15
2010-03-23 13:48:48 51°9.639 2°37.709 261.1 1.3 260 15
2010-03-23 13:49:48 51°9.635 2°37.677 258.6 1.2 260 15.1
2010-03-23 13:50:48 51°9.631 2°37.647 256.6 1.1 259 15.2
2010-03-23 13:51:48 51°9.627 2°37.619 255.9 1.1 257 15.4
2010-03-23 13:52:48 51°9.623 2°37.591 254.5 1 256 15.5
2010-03-23 13:53:48 51°9.62 2°37.566 250.8 0.9 254 15.6
2010-03-23 13:54:48 51°9.615 2°37.521 265.7 3 266 15.7
2010-03-23 13:55:48 51°9.655 2°37.431 343.4 5.6 342 16.7
2010-03-23 13:56:48 51°9.736 2°37.543 64.1 8.7 62 16.8
2010-03-23 13:57:48 51°9.804 2°37.803 71.5 12.4 71 16.6
2010-03-23 13:58:48 51°9.875 2°38.125 73.3 13 72 16.1
2010-03-23 13:59:48 51°9.935 2°38.456 74.3 12.9 73 15.4
2010-03-23 14:00:48 51°9.996 2°38.785 74.5 12.9 73 14.9
2010-03-23 14:01:48 51°10.07 2°39.107 70.2 13 69 14.6
2010-03-23 14:02:48 51°10.147 2°39.428 70.5 13 70 14.2
2010-03-23 14:03:48 51°10.224 2°39.752 70.4 13.1 70 13.9
2010-03-23 14:04:48 51°10.302 2°40.074 69.7 13 69 13.5
2010-03-23 14:05:48 51°10.378 2°40.398 70.5 13 69 13.3
2010-03-23 14:06:48 51°10.454 2°40.721 70.1 13.1 69 13.2
2010-03-23 14:07:48 51°10.531 2°41.045 70.3 13.1 69 13
2010-03-23 14:08:48 51°10.609 2°41.368 70 13.1 69 13.1
2010-03-23 14:09:48 51°10.685 2°41.692 70.4 13.1 69 13
2010-03-23 14:10:48 51°10.762 2°42.017 70.4 13 70 13.1
2010-03-23 14:11:48 51°10.842 2°42.338 67.5 13 65 13.1
2010-03-23 14:12:48 51°10.929 2°42.653 67.6 13 67 13.2
2010-03-23 14:13:48 51°11.012 2°42.97 68.4 13 68 13.3
2010-03-23 14:14:48 51°11.096 2°43.288 68.4 13 67 13.3
2010-03-23 14:15:48 51°11.18 2°43.605 68.7 13 67 13.3
2010-03-23 14:16:48 51°11.257 2°43.928 70.4 13.1 69 13.4
2010-03-23 14:17:48 51°11.334 2°44.251 69.3 13 67 13.5
2010-03-23 14:18:48 51°11.42 2°44.567 67 13 67 13.5
2010-03-23 14:19:48 51°11.508 2°44.883 67.2 13 66 13.6
2010-03-23 14:20:48 51°11.597 2°45.198 67.2 13 66 13.7
2010-03-23 14:21:48 51°11.684 2°45.513 67.4 13.1 66 13.7
2010-03-23 14:22:48 51°11.771 2°45.831 67.3 13.1 66 13.7
2010-03-23 14:23:48 51°11.858 2°46.151 67 13.2 66 13.8
2010-03-23 14:24:48 51°11.946 2°46.472 67 13.2 67 13.8
2010-03-23 14:25:48 51°12.035 2°46.792 67.3 13.2 66 13.7
2010-03-23 14:26:48 51°12.123 2°47.112 67.3 13.2 66 13.7
2010-03-23 14:27:48 51°12.212 2°47.435 67.4 13.3 67 13.7
2010-03-23 14:28:48 51°12.3 2°47.756 67 13.2 66 13.6
2010-03-23 14:29:48 51°12.39 2°48.076 66.9 13.2 65 13.4
2010-03-23 14:30:48 51°12.479 2°48.396 67.4 13.2 66 13.3
2010-03-23 14:31:48 51°12.569 2°48.716 67.6 13.3 67 13.2
2010-03-23 14:32:48 51°12.661 2°49.037 66.9 13.3 66 13
2010-03-23 14:33:48 51°12.76 2°49.352 62.9 13.3 62 12.9
2010-03-23 14:34:48 51°12.867 2°49.662 63.2 13.4 62 12.7
2010-03-23 14:35:48 51°12.972 2°49.975 62.7 13.4 61 12.6
2010-03-23 14:36:48 51°13.081 2°50.262 58.7 10.9 56 12.5
2010-03-23 14:37:48 51°13.183 2°50.471 53.8 9.6 52 12.6
2010-03-23 14:38:48 51°13.281 2°50.67 53.8 9.4 51 12.6
2010-03-23 14:39:48 51°13.391 2°50.847 43.5 9.4 43 12.7
2010-03-23 14:40:48 51°13.439 2°50.99 84.9 3.5 86 12.7
2010-03-23 14:41:48 51°13.435 2°51.032 125.3 0.3 75 12.6
2010-03-23 14:42:48 51°13.439 2°51.034 134.6 0.3 7 12.7
2010-03-23 14:43:48 51°13.443 2°51.036 123.3 0.5 84 12.8
2010-03-23 14:44:48 51°13.453 2°51.142 73.5 7.9 69 12.5
2010-03-23 14:45:48 51°13.554 2°51.395 57.2 13.3 55 12.4
2010-03-23 14:46:48 51°13.674 2°51.702 61.5 13.8 59 12.3
2010-03-23 14:47:48 51°13.791 2°52.019 61.8 13.8 60 12.1
2010-03-23 14:48:48 51°13.907 2°52.338 62.1 13.9 60 12
2010-03-23 14:49:48 51°14.024 2°52.656 60.8 13.9 58 11.8
2010-03-23 14:50:48 51°14.141 2°52.956 59.7 13 58 11.9
2010-03-23 14:51:48 51°14.255 2°53.25 60.5 13 59 11.6
2010-03-23 14:52:48 51°14.365 2°53.547 61.4 12.8 59 11.1
2010-03-23 14:53:48 51°14.469 2°53.838 65.4 12.4 64 11.1
2010-03-23 14:54:48 51°14.534 2°54.131 75.1 11.5 74 11.1
2010-03-23 14:55:48 51°14.58 2°54.378 76.2 8.5 73 11.2
2010-03-23 14:56:48 51°14.615 2°54.582 78.8 7.7 76 11.4
2010-03-23 14:57:48 51°14.628 2°54.781 95.9 7.4 96 11.3
2010-03-23 14:58:48 51°14.562 2°54.973 138.3 9.1 140 12.9
2010-03-23 14:59:48 51°14.432 2°55.123 146.7 9.9 146 11.7
2010-03-23 15:00:48 51°14.293 2°55.269 148.3 10 148 11.6
2010-03-23 15:01:48 51°14.147 2°55.394 152.9 9.9 153 11.4
2010-03-23 15:02:48 51°14.01 2°55.5 155.5 7.6 154 11.3
2010-03-23 15:03:48 51°13.91 2°55.574 155.8 6.2 156 11.4
2010-03-23 15:04:48 51°13.816 2°55.645 153.3 6.4 152 11.2
2010-03-23 15:05:48 51°13.737 2°55.748 134.3 5.5 132 12.4
2010-03-23 15:06:49 51°13.692 2°55.85 120.6 4.1 118 9.8
2010-03-23 15:07:48 51°13.668 2°55.94 112.8 2.9 110 8.4